Current Conditions
Scattered
Clouds



Pressure
1020.92 (mb) - 30.15 (inHG)
Visibility

10.0 (km) - 6.2 (miles)
   Temperature
-2  °C
Temperature
-5  °C
Dewpoint
80  %
 Humidity
   Wind Speed
23  km/h
12  kts
14  mph
6.3  m/s
   Wind Direction
N
45°
E
90°
135°
S
180°
225°
W
270°
315°
 290°

West North
West
   Airport Data
LOWL
Linz Hörsching Airport
Metar :LOWL 161950Z AUTO 29012KT 9999 SCT024 BKN026 M02/M05 Q1021
Sat 16th January 20:50 pm
   Raw Metar Info
Raw METAR is the most common format in the world for the transmission of observational weather data. It is highly standardized through the International Civil Aviation Organization (ICAO), which allows it to be understood throughout most of the world.
   API Info
Data Provided by
https://www.checkwx.com/weather/LOWL

Aviation Weather providing METAR, TAF, AIRMET, SIGMET and OUTLOOK Weather Reports
   © Info
CSS/SVG/PHP scripts were developed by weather34.com for use in the weather34 template © 2015-2021

Guide Info provided by Metar-Wikipedia